sensor_id;sensor_type;location;lat;lon;timestamp;P1;durP1;ratioP1;P2;durP2;ratioP2
58615;SDS011;44385;51.992;4.206;2023-04-01T00:00:46;145.48;;;20.25;;
58615;SDS011;44385;51.992;4.206;2023-04-01T00:03:13;141.25;;;21.35;;
58615;SDS011;44385;51.992;4.206;2023-04-01T00:05:39;177.10;;;22.45;;
58615;SDS011;44385;51.992;4.206;2023-04-01T00:08:06;172.20;;;22.52;;
58615;SDS011;44385;51.992;4.206;2023-04-01T00:10:33;162.20;;;24.83;;
58615;SDS011;44385;51.992;4.206;2023-04-01T00:13:00;152.38;;;22.77;;
58615;SDS011;44385;51.992;4.206;2023-04-01T00:15:26;133.55;;;20.92;;
58615;SDS011;44385;51.992;4.206;2023-04-01T00:17:52;147.35;;;22.27;;
58615;SDS011;44385;51.992;4.206;2023-04-01T00:20:20;129.13;;;19.60;;
58615;SDS011;44385;51.992;4.206;2023-04-01T00:22:46;117.05;;;19.30;;
58615;SDS011;44385;51.992;4.206;2023-04-01T00:25:13;133.40;;;20.48;;
58615;SDS011;44385;51.992;4.206;2023-04-01T00:27:41;117.55;;;21.08;;
58615;SDS011;44385;51.992;4.206;2023-04-01T00:30:07;96.88;;;17.33;;
58615;SDS011;44385;51.992;4.206;2023-04-01T00:32:34;104.40;;;19.58;;
58615;SDS011;44385;51.992;4.206;2023-04-01T00:35:01;114.65;;;20.02;;
58615;SDS011;44385;51.992;4.206;2023-04-01T00:37:27;107.43;;;20.02;;
58615;SDS011;44385;51.992;4.206;2023-04-01T00:39:54;105.30;;;16.60;;
58615;SDS011;44385;51.992;4.206;2023-04-01T00:42:21;102.05;;;19.23;;
58615;SDS011;44385;51.992;4.206;2023-04-01T00:44:50;112.57;;;18.92;;
58615;SDS011;44385;51.992;4.206;2023-04-01T00:47:17;83.93;;;17.08;;
58615;SDS011;44385;51.992;4.206;2023-04-01T00:49:45;141.10;;;21.10;;
58615;SDS011;44385;51.992;4.206;2023-04-01T00:52:14;127.50;;;21.55;;
58615;SDS011;44385;51.992;4.206;2023-04-01T00:54:41;134.00;;;23.30;;
58615;SDS011;44385;51.992;4.206;2023-04-01T00:57:10;129.95;;;22.30;;
58615;SDS011;44385;51.992;4.206;2023-04-01T00:59:39;153.05;;;22.08;;
58615;SDS011;44385;51.992;4.206;2023-04-01T01:02:09;102.97;;;18.20;;
58615;SDS011;44385;51.992;4.206;2023-04-01T01:04:38;105.43;;;18.92;;
58615;SDS011;44385;51.992;4.206;2023-04-01T01:07:08;122.03;;;19.33;;
58615;SDS011;44385;51.992;4.206;2023-04-01T01:09:38;106.07;;;18.85;;
58615;SDS011;44385;51.992;4.206;2023-04-01T01:12:08;84.40;;;16.83;;
58615;SDS011;44385;51.992;4.206;2023-04-01T01:14:44;111.55;;;19.50;;
58615;SDS011;44385;51.992;4.206;2023-04-01T01:17:14;79.25;;;15.38;;
58615;SDS011;44385;51.992;4.206;2023-04-01T01:19:54;78.07;;;14.27;;
58615;SDS011;44385;51.992;4.206;2023-04-01T01:22:33;52.08;;;12.48;;
58615;SDS011;44385;51.992;4.206;2023-04-01T01:25:09;58.35;;;12.93;;
58615;SDS011;44385;51.992;4.206;2023-04-01T01:27:41;48.65;;;10.45;;
58615;SDS011;44385;51.992;4.206;2023-04-01T01:35:43;58.45;;;11.57;;
58615;SDS011;44385;51.992;4.206;2023-04-01T01:38:11;42.38;;;10.50;;
58615;SDS011;44385;51.992;4.206;2023-04-01T01:40:39;49.28;;;11.25;;
58615;SDS011;44385;51.992;4.206;2023-04-01T01:43:08;40.78;;;10.13;;
58615;SDS011;44385;51.992;4.206;2023-04-01T01:45:36;53.67;;;11.93;;
58615;SDS011;44385;51.992;4.206;2023-04-01T01:48:04;52.97;;;11.63;;
58615;SDS011;44385;51.992;4.206;2023-04-01T01:50:31;46.83;;;11.45;;
58615;SDS011;44385;51.992;4.206;2023-04-01T01:53:03;50.83;;;11.52;;
58615;SDS011;44385;51.992;4.206;2023-04-01T01:55:30;57.05;;;13.23;;
58615;SDS011;44385;51.992;4.206;2023-04-01T01:57:57;54.65;;;11.75;;
58615;SDS011;44385;51.992;4.206;2023-04-01T02:00:25;45.47;;;10.43;;
58615;SDS011;44385;51.992;4.206;2023-04-01T02:02:52;26.38;;;7.78;;
58615;SDS011;44385;51.992;4.206;2023-04-01T02:05:23;31.90;;;7.55;;
58615;SDS011;44385;51.992;4.206;2023-04-01T02:07:51;21.73;;;6.15;;
58615;SDS011;44385;51.992;4.206;2023-04-01T02:10:21;27.80;;;8.13;;
58615;SDS011;44385;51.992;4.206;2023-04-01T02:12:49;29.55;;;7.40;;
58615;SDS011;44385;51.992;4.206;2023-04-01T02:15:17;18.67;;;5.63;;
58615;SDS011;44385;51.992;4.206;2023-04-01T02:17:47;13.55;;;4.20;;
58615;SDS011;44385;51.992;4.206;2023-04-01T02:20:19;14.55;;;4.57;;
58615;SDS011;44385;51.992;4.206;2023-04-01T02:22:46;11.80;;;3.58;;
58615;SDS011;44385;51.992;4.206;2023-04-01T02:25:15;19.88;;;5.50;;
58615;SDS011;44385;51.992;4.206;2023-04-01T02:27:47;14.65;;;5.68;;
58615;SDS011;44385;51.992;4.206;2023-04-01T02:30:14;27.00;;;6.73;;
58615;SDS011;44385;51.992;4.206;2023-04-01T02:32:45;22.10;;;8.25;;
58615;SDS011;44385;51.992;4.206;2023-04-01T02:35:13;27.98;;;9.57;;
58615;SDS011;44385;51.992;4.206;2023-04-01T02:37:43;45.72;;;11.60;;
58615;SDS011;44385;51.992;4.206;2023-04-01T02:40:11;58.53;;;13.23;;
58615;SDS011;44385;51.992;4.206;2023-04-01T02:42:39;57.67;;;14.97;;
58615;SDS011;44385;51.992;4.206;2023-04-01T02:45:08;75.65;;;14.50;;
58615;SDS011;44385;51.992;4.206;2023-04-01T02:47:34;71.47;;;16.15;;
58615;SDS011;44385;51.992;4.206;2023-04-01T02:50:01;95.65;;;21.75;;
58615;SDS011;44385;51.992;4.206;2023-04-01T02:52:28;91.35;;;20.42;;
58615;SDS011;44385;51.992;4.206;2023-04-01T02:54:55;113.03;;;22.15;;
58615;SDS011;44385;51.992;4.206;2023-04-01T02:57:22;118.93;;;22.80;;
58615;SDS011;44385;51.992;4.206;2023-04-01T02:59:49;123.63;;;24.02;;
58615;SDS011;44385;51.992;4.206;2023-04-01T03:02:17;119.22;;;21.58;;
58615;SDS011;44385;51.992;4.206;2023-04-01T03:04:44;131.85;;;24.45;;
58615;SDS011;44385;51.992;4.206;2023-04-01T03:07:11;145.32;;;25.33;;
58615;SDS011;44385;51.992;4.206;2023-04-01T03:09:38;114.10;;;23.08;;
58615;SDS011;44385;51.992;4.206;2023-04-01T03:12:05;110.05;;;21.27;;
58615;SDS011;44385;51.992;4.206;2023-04-01T03:14:32;120.10;;;23.60;;
58615;SDS011;44385;51.992;4.206;2023-04-01T03:16:58;134.23;;;25.08;;
58615;SDS011;44385;51.992;4.206;2023-04-01T03:19:26;102.38;;;19.60;;
58615;SDS011;44385;51.992;4.206;2023-04-01T03:21:53;126.97;;;24.33;;
58615;SDS011;44385;51.992;4.206;2023-04-01T03:24:20;136.75;;;24.73;;
58615;SDS011;44385;51.992;4.206;2023-04-01T03:26:47;127.18;;;25.08;;
58615;SDS011;44385;51.992;4.206;2023-04-01T03:29:14;139.18;;;25.83;;
58615;SDS011;44385;51.992;4.206;2023-04-01T03:31:41;168.35;;;28.60;;
58615;SDS011;44385;51.992;4.206;2023-04-01T03:34:08;161.52;;;29.23;;
58615;SDS011;44385;51.992;4.206;2023-04-01T03:36:36;136.43;;;27.20;;
58615;SDS011;44385;51.992;4.206;2023-04-01T03:39:03;126.60;;;26.85;;
58615;SDS011;44385;51.992;4.206;2023-04-01T03:41:30;155.68;;;30.13;;
58615;SDS011;44385;51.992;4.206;2023-04-01T03:43:56;119.65;;;24.90;;
58615;SDS011;44385;51.992;4.206;2023-04-01T03:46:23;109.30;;;25.08;;
58615;SDS011;44385;51.992;4.206;2023-04-01T03:48:49;128.63;;;26.40;;
58615;SDS011;44385;51.992;4.206;2023-04-01T03:51:15;135.90;;;27.92;;
58615;SDS011;44385;51.992;4.206;2023-04-01T03:53:43;94.90;;;24.67;;
58615;SDS011;44385;51.992;4.206;2023-04-01T03:56:10;96.13;;;23.98;;
58615;SDS011;44385;51.992;4.206;2023-04-01T03:58:37;93.40;;;24.92;;
58615;SDS011;44385;51.992;4.206;2023-04-01T04:01:12;75.85;;;21.75;;
58615;SDS011;44385;51.992;4.206;2023-04-01T04:03:39;60.83;;;18.55;;
58615;SDS011;44385;51.992;4.206;2023-04-01T04:06:07;45.30;;;17.75;;
58615;SDS011;44385;51.992;4.206;2023-04-01T04:08:36;54.45;;;18.20;;
58615;SDS011;44385;51.992;4.206;2023-04-01T04:11:04;59.38;;;19.20;;
58615;SDS011;44385;51.992;4.206;2023-04-01T04:13:30;66.10;;;17.95;;
58615;SDS011;44385;51.992;4.206;2023-04-01T04:15:57;65.30;;;19.70;;
58615;SDS011;44385;51.992;4.206;2023-04-01T04:18:24;59.10;;;18.35;;
58615;SDS011;44385;51.992;4.206;2023-04-01T04:20:50;61.55;;;18.65;;
58615;SDS011;44385;51.992;4.206;2023-04-01T04:23:17;63.53;;;20.13;;
58615;SDS011;44385;51.992;4.206;2023-04-01T04:25:52;84.32;;;23.30;;
58615;SDS011;44385;51.992;4.206;2023-04-01T04:28:20;67.40;;;20.40;;
58615;SDS011;44385;51.992;4.206;2023-04-01T04:30:47;84.95;;;22.83;;
58615;SDS011;44385;51.992;4.206;2023-04-01T04:33:14;73.95;;;24.30;;
58615;SDS011;44385;51.992;4.206;2023-04-01T04:35:41;71.75;;;22.60;;
58615;SDS011;44385;51.992;4.206;2023-04-01T04:38:07;74.28;;;21.08;;
58615;SDS011;44385;51.992;4.206;2023-04-01T04:40:35;67.35;;;20.13;;
58615;SDS011;44385;51.992;4.206;2023-04-01T04:43:01;67.95;;;19.25;;
58615;SDS011;44385;51.992;4.206;2023-04-01T04:45:29;70.68;;;20.77;;
58615;SDS011;44385;51.992;4.206;2023-04-01T04:47:56;66.63;;;22.58;;
58615;SDS011;44385;51.992;4.206;2023-04-01T04:50:23;70.95;;;21.15;;
58615;SDS011;44385;51.992;4.206;2023-04-01T04:52:49;78.38;;;22.10;;
58615;SDS011;44385;51.992;4.206;2023-04-01T04:55:16;79.07;;;22.23;;
58615;SDS011;44385;51.992;4.206;2023-04-01T04:57:42;61.60;;;18.90;;
58615;SDS011;44385;51.992;4.206;2023-04-01T05:00:08;76.88;;;22.20;;
58615;SDS011;44385;51.992;4.206;2023-04-01T05:02:38;62.97;;;21.10;;
58615;SDS011;44385;51.992;4.206;2023-04-01T05:05:04;76.90;;;23.55;;
58615;SDS011;44385;51.992;4.206;2023-04-01T05:07:31;73.97;;;24.63;;
58615;SDS011;44385;51.992;4.206;2023-04-01T05:09:58;62.40;;;22.88;;
58615;SDS011;44385;51.992;4.206;2023-04-01T05:12:25;57.03;;;21.67;;
58615;SDS011;44385;51.992;4.206;2023-04-01T05:14:51;53.33;;;21.33;;
58615;SDS011;44385;51.992;4.206;2023-04-01T05:17:18;38.55;;;18.38;;
58615;SDS011;44385;51.992;4.206;2023-04-01T05:19:47;45.80;;;19.30;;
58615;SDS011;44385;51.992;4.206;2023-04-01T05:22:14;43.92;;;19.33;;
58615;SDS011;44385;51.992;4.206;2023-04-01T05:24:41;45.72;;;18.25;;
58615;SDS011;44385;51.992;4.206;2023-04-01T05:27:07;52.92;;;18.95;;
58615;SDS011;44385;51.992;4.206;2023-04-01T05:29:34;49.80;;;19.63;;
58615;SDS011;44385;51.992;4.206;2023-04-01T05:32:00;60.65;;;19.42;;
58615;SDS011;44385;51.992;4.206;2023-04-01T05:34:27;54.50;;;21.73;;
58615;SDS011;44385;51.992;4.206;2023-04-01T05:36:55;60.55;;;20.73;;
58615;SDS011;44385;51.992;4.206;2023-04-01T05:39:21;65.78;;;22.63;;
58615;SDS011;44385;51.992;4.206;2023-04-01T05:41:49;55.78;;;23.77;;
58615;SDS011;44385;51.992;4.206;2023-04-01T05:44:15;57.00;;;22.05;;
58615;SDS011;44385;51.992;4.206;2023-04-01T05:46:42;64.63;;;24.63;;
58615;SDS011;44385;51.992;4.206;2023-04-01T05:49:08;69.03;;;22.05;;
58615;SDS011;44385;51.992;4.206;2023-04-01T05:51:34;59.45;;;22.50;;
58615;SDS011;44385;51.992;4.206;2023-04-01T05:54:02;56.78;;;25.27;;
58615;SDS011;44385;51.992;4.206;2023-04-01T05:56:29;57.35;;;21.98;;
58615;SDS011;44385;51.992;4.206;2023-04-01T05:58:56;75.60;;;25.30;;
58615;SDS011;44385;51.992;4.206;2023-04-01T06:01:22;65.00;;;22.73;;
58615;SDS011;44385;51.992;4.206;2023-04-01T06:03:52;70.13;;;18.27;;
58615;SDS011;44385;51.992;4.206;2023-04-01T06:06:22;73.78;;;22.75;;
58615;SDS011;44385;51.992;4.206;2023-04-01T06:08:49;79.38;;;22.42;;
58615;SDS011;44385;51.992;4.206;2023-04-01T06:11:22;72.03;;;19.90;;
58615;SDS011;44385;51.992;4.206;2023-04-01T06:13:53;76.32;;;23.02;;
58615;SDS011;44385;51.992;4.206;2023-04-01T06:16:26;56.60;;;18.02;;
58615;SDS011;44385;51.992;4.206;2023-04-01T06:18:58;59.85;;;19.92;;
58615;SDS011;44385;51.992;4.206;2023-04-01T06:21:30;57.83;;;19.95;;
58615;SDS011;44385;51.992;4.206;2023-04-01T06:24:07;68.60;;;20.92;;
58615;SDS011;44385;51.992;4.206;2023-04-01T06:26:43;58.78;;;21.73;;
58615;SDS011;44385;51.992;4.206;2023-04-01T06:29:25;49.70;;;19.33;;
58615;SDS011;44385;51.992;4.206;2023-04-01T06:32:08;55.08;;;18.38;;
58615;SDS011;44385;51.992;4.206;2023-04-01T06:34:56;65.60;;;22.05;;
58615;SDS011;44385;51.992;4.206;2023-04-01T06:43:02;60.03;;;21.13;;
58615;SDS011;44385;51.992;4.206;2023-04-01T06:45:34;42.40;;;19.65;;
58615;SDS011;44385;51.992;4.206;2023-04-01T06:48:16;55.33;;;20.88;;
58615;SDS011;44385;51.992;4.206;2023-04-01T06:50:48;37.13;;;15.75;;
58615;SDS011;44385;51.992;4.206;2023-04-01T06:53:19;40.53;;;15.82;;
58615;SDS011;44385;51.992;4.206;2023-04-01T06:55:47;45.35;;;17.65;;
58615;SDS011;44385;51.992;4.206;2023-04-01T06:58:20;32.10;;;14.60;;
58615;SDS011;44385;51.992;4.206;2023-04-01T07:00:48;33.08;;;14.23;;
58615;SDS011;44385;51.992;4.206;2023-04-01T07:03:19;35.53;;;13.13;;
58615;SDS011;44385;51.992;4.206;2023-04-01T07:05:46;28.50;;;12.48;;
58615;SDS011;44385;51.992;4.206;2023-04-01T07:08:17;25.43;;;12.47;;
58615;SDS011;44385;51.992;4.206;2023-04-01T07:10:45;31.60;;;12.50;;
58615;SDS011;44385;51.992;4.206;2023-04-01T07:13:17;27.80;;;12.25;;
58615;SDS011;44385;51.992;4.206;2023-04-01T07:15:48;27.00;;;12.73;;
58615;SDS011;44385;51.992;4.206;2023-04-01T07:18:17;24.20;;;11.07;;
58615;SDS011;44385;51.992;4.206;2023-04-01T07:20:44;22.45;;;9.30;;
58615;SDS011;44385;51.992;4.206;2023-04-01T07:23:11;20.65;;;10.07;;
58615;SDS011;44385;51.992;4.206;2023-04-01T07:25:42;29.35;;;12.05;;
58615;SDS011;44385;51.992;4.206;2023-04-01T07:28:11;33.20;;;12.65;;
58615;SDS011;44385;51.992;4.206;2023-04-01T07:30:41;29.30;;;12.32;;
58615;SDS011;44385;51.992;4.206;2023-04-01T07:33:11;27.25;;;12.48;;
58615;SDS011;44385;51.992;4.206;2023-04-01T07:35:44;24.05;;;10.10;;
58615;SDS011;44385;51.992;4.206;2023-04-01T07:38:15;18.55;;;8.70;;
58615;SDS011;44385;51.992;4.206;2023-04-01T07:40:45;15.93;;;8.25;;
58615;SDS011;44385;51.992;4.206;2023-04-01T07:43:21;17.63;;;8.48;;
58615;SDS011;44385;51.992;4.206;2023-04-01T07:45:52;19.35;;;8.48;;
58615;SDS011;44385;51.992;4.206;2023-04-01T07:48:28;23.65;;;11.30;;
58615;SDS011;44385;51.992;4.206;2023-04-01T07:50:59;28.42;;;12.23;;
58615;SDS011;44385;51.992;4.206;2023-04-01T07:53:29;31.48;;;13.40;;
58615;SDS011;44385;51.992;4.206;2023-04-01T07:55:59;35.65;;;15.35;;
58615;SDS011;44385;51.992;4.206;2023-04-01T07:58:29;33.33;;;14.02;;
58615;SDS011;44385;51.992;4.206;2023-04-01T08:00:59;37.80;;;14.30;;
58615;SDS011;44385;51.992;4.206;2023-04-01T08:03:38;67.85;;;17.83;;
58615;SDS011;44385;51.992;4.206;2023-04-01T08:06:10;43.65;;;14.52;;
58615;SDS011;44385;51.992;4.206;2023-04-01T08:08:42;48.60;;;14.70;;
58615;SDS011;44385;51.992;4.206;2023-04-01T08:11:16;41.00;;;13.98;;
58615;SDS011;44385;51.992;4.206;2023-04-01T08:13:49;41.85;;;16.63;;
58615;SDS011;44385;51.992;4.206;2023-04-01T08:16:19;33.65;;;15.27;;
58615;SDS011;44385;51.992;4.206;2023-04-01T08:18:53;34.35;;;14.30;;
58615;SDS011;44385;51.992;4.206;2023-04-01T08:21:23;36.17;;;14.52;;
58615;SDS011;44385;51.992;4.206;2023-04-01T08:23:52;35.10;;;14.00;;
58615;SDS011;44385;51.992;4.206;2023-04-01T08:26:20;44.83;;;15.18;;
58615;SDS011;44385;51.992;4.206;2023-04-01T08:28:52;45.45;;;15.02;;
58615;SDS011;44385;51.992;4.206;2023-04-01T08:31:22;45.60;;;16.20;;
58615;SDS011;44385;51.992;4.206;2023-04-01T08:33:53;44.60;;;15.30;;
58615;SDS011;44385;51.992;4.206;2023-04-01T08:36:21;50.90;;;16.42;;
58615;SDS011;44385;51.992;4.206;2023-04-01T08:38:53;47.38;;;16.98;;
58615;SDS011;44385;51.992;4.206;2023-04-01T08:41:27;45.72;;;16.27;;
58615;SDS011;44385;51.992;4.206;2023-04-01T08:44:04;53.93;;;16.27;;
58615;SDS011;44385;51.992;4.206;2023-04-01T08:46:50;45.33;;;17.33;;
58615;SDS011;44385;51.992;4.206;2023-04-01T08:49:34;44.08;;;15.98;;
58615;SDS011;44385;51.992;4.206;2023-04-01T08:52:15;38.38;;;14.32;;
58615;SDS011;44385;51.992;4.206;2023-04-01T08:54:57;47.20;;;17.10;;
58615;SDS011;44385;51.992;4.206;2023-04-01T08:57:32;42.05;;;14.27;;
58615;SDS011;44385;51.992;4.206;2023-04-01T09:00:08;40.78;;;15.00;;
58615;SDS011;44385;51.992;4.206;2023-04-01T09:02:55;30.73;;;13.48;;
58615;SDS011;44385;51.992;4.206;2023-04-01T09:05:35;38.60;;;13.95;;
58615;SDS011;44385;51.992;4.206;2023-04-01T09:08:05;36.70;;;13.52;;
58615;SDS011;44385;51.992;4.206;2023-04-01T09:10:42;32.88;;;12.57;;
58615;SDS011;44385;51.992;4.206;2023-04-01T09:13:19;25.08;;;13.10;;
58615;SDS011;44385;51.992;4.206;2023-04-01T09:15:53;28.63;;;12.88;;
58615;SDS011;44385;51.992;4.206;2023-04-01T09:21:14;40.50;;;14.98;;
58615;SDS011;44385;51.992;4.206;2023-04-01T09:23:47;37.17;;;15.55;;
58615;SDS011;44385;51.992;4.206;2023-04-01T09:26:25;33.88;;;14.38;;
58615;SDS011;44385;51.992;4.206;2023-04-01T09:28:57;42.35;;;15.85;;
58615;SDS011;44385;51.992;4.206;2023-04-01T09:31:31;34.10;;;13.63;;
58615;SDS011;44385;51.992;4.206;2023-04-01T09:34:09;33.28;;;15.23;;
58615;SDS011;44385;51.992;4.206;2023-04-01T09:36:46;28.77;;;12.57;;
58615;SDS011;44385;51.992;4.206;2023-04-01T09:45:07;25.65;;;11.98;;
58615;SDS011;44385;51.992;4.206;2023-04-01T09:47:42;30.58;;;10.73;;
58615;SDS011;44385;51.992;4.206;2023-04-01T09:50:16;22.27;;;10.30;;
58615;SDS011;44385;51.992;4.206;2023-04-01T09:52:46;19.77;;;10.25;;
58615;SDS011;44385;51.992;4.206;2023-04-01T09:55:25;20.80;;;10.90;;
58615;SDS011;44385;51.992;4.206;2023-04-01T09:58:07;23.45;;;11.00;;
58615;SDS011;44385;51.992;4.206;2023-04-01T10:00:53;21.67;;;8.98;;
58615;SDS011;44385;51.992;4.206;2023-04-01T10:14:26;15.00;;;8.07;;
58615;SDS011;44385;51.992;4.206;2023-04-01T10:17:00;15.75;;;7.55;;
58615;SDS011;44385;51.992;4.206;2023-04-01T10:22:23;16.88;;;7.70;;
58615;SDS011;44385;51.992;4.206;2023-04-01T10:30:58;25.45;;;10.85;;
58615;SDS011;44385;51.992;4.206;2023-04-01T10:36:41;26.15;;;11.00;;
58615;SDS011;44385;51.992;4.206;2023-04-01T10:39:32;24.85;;;10.75;;
58615;SDS011;44385;51.992;4.206;2023-04-01T10:45:03;25.90;;;10.68;;
58615;SDS011;44385;51.992;4.206;2023-04-01T10:56:17;17.70;;;9.40;;
58615;SDS011;44385;51.992;4.206;2023-04-01T10:59:03;25.35;;;11.50;;
58615;SDS011;44385;51.992;4.206;2023-04-01T11:01:45;32.17;;;11.07;;
58615;SDS011;44385;51.992;4.206;2023-04-01T11:13:15;24.60;;;9.38;;
58615;SDS011;44385;51.992;4.206;2023-04-01T11:21:35;29.10;;;12.02;;
58615;SDS011;44385;51.992;4.206;2023-04-01T11:24:12;34.88;;;13.80;;
58615;SDS011;44385;51.992;4.206;2023-04-01T11:26:49;34.83;;;14.80;;
58615;SDS011;44385;51.992;4.206;2023-04-01T11:32:15;34.90;;;13.52;;
58615;SDS011;44385;51.992;4.206;2023-04-01T11:34:56;33.03;;;14.15;;
58615;SDS011;44385;51.992;4.206;2023-04-01T11:37:29;33.28;;;14.98;;
58615;SDS011;44385;51.992;4.206;2023-04-01T11:40:04;41.95;;;14.40;;
58615;SDS011;44385;51.992;4.206;2023-04-01T11:42:34;43.53;;;15.05;;
58615;SDS011;44385;51.992;4.206;2023-04-01T11:45:07;44.90;;;15.02;;
58615;SDS011;44385;51.992;4.206;2023-04-01T11:50:35;45.13;;;15.13;;
58615;SDS011;44385;51.992;4.206;2023-04-01T11:53:21;38.83;;;15.60;;
58615;SDS011;44385;51.992;4.206;2023-04-01T11:56:06;45.45;;;15.55;;
58615;SDS011;44385;51.992;4.206;2023-04-01T11:58:41;37.42;;;13.80;;
58615;SDS011;44385;51.992;4.206;2023-04-01T12:01:20;45.83;;;14.85;;
58615;SDS011;44385;51.992;4.206;2023-04-01T12:06:50;45.22;;;15.65;;
58615;SDS011;44385;51.992;4.206;2023-04-01T12:09:19;43.08;;;15.55;;
58615;SDS011;44385;51.992;4.206;2023-04-01T12:11:51;43.97;;;14.88;;
58615;SDS011;44385;51.992;4.206;2023-04-01T12:14:20;38.88;;;14.73;;
58615;SDS011;44385;51.992;4.206;2023-04-01T12:16:55;34.03;;;15.00;;
58615;SDS011;44385;51.992;4.206;2023-04-01T12:19:26;39.10;;;16.23;;
58615;SDS011;44385;51.992;4.206;2023-04-01T12:22:00;32.75;;;14.88;;
58615;SDS011;44385;51.992;4.206;2023-04-01T12:24:36;27.95;;;13.85;;
58615;SDS011;44385;51.992;4.206;2023-04-01T12:29:58;27.85;;;13.20;;
58615;SDS011;44385;51.992;4.206;2023-04-01T12:32:30;33.70;;;14.40;;
58615;SDS011;44385;51.992;4.206;2023-04-01T12:35:02;28.85;;;12.25;;
58615;SDS011;44385;51.992;4.206;2023-04-01T12:37:35;37.90;;;14.48;;
58615;SDS011;44385;51.992;4.206;2023-04-01T12:40:17;29.58;;;12.77;;
58615;SDS011;44385;51.992;4.206;2023-04-01T12:42:50;30.52;;;13.85;;
58615;SDS011;44385;51.992;4.206;2023-04-01T12:45:28;31.73;;;14.63;;
58615;SDS011;44385;51.992;4.206;2023-04-01T12:50:43;37.22;;;14.80;;
58615;SDS011;44385;51.992;4.206;2023-04-01T12:53:22;37.38;;;13.80;;
58615;SDS011;44385;51.992;4.206;2023-04-01T12:56:00;30.10;;;12.88;;
58615;SDS011;44385;51.992;4.206;2023-04-01T12:58:44;33.05;;;13.52;;
58615;SDS011;44385;51.992;4.206;2023-04-01T13:04:12;33.53;;;12.40;;
58615;SDS011;44385;51.992;4.206;2023-04-01T13:06:44;19.27;;;10.13;;
58615;SDS011;44385;51.992;4.206;2023-04-01T13:09:21;22.20;;;9.38;;
58615;SDS011;44385;51.992;4.206;2023-04-01T13:11:55;22.02;;;10.30;;
58615;SDS011;44385;51.992;4.206;2023-04-01T13:14:37;19.80;;;9.57;;
58615;SDS011;44385;51.992;4.206;2023-04-01T13:17:08;22.88;;;9.73;;
58615;SDS011;44385;51.992;4.206;2023-04-01T13:19:39;20.60;;;9.35;;
58615;SDS011;44385;51.992;4.206;2023-04-01T13:22:08;19.90;;;9.73;;
58615;SDS011;44385;51.992;4.206;2023-04-01T13:24:45;21.17;;;9.95;;
58615;SDS011;44385;51.992;4.206;2023-04-01T13:27:17;21.27;;;8.73;;
58615;SDS011;44385;51.992;4.206;2023-04-01T13:29:57;14.97;;;8.80;;
58615;SDS011;44385;51.992;4.206;2023-04-01T13:32:29;19.27;;;7.82;;
58615;SDS011;44385;51.992;4.206;2023-04-01T13:35:00;17.08;;;7.07;;
58615;SDS011;44385;51.992;4.206;2023-04-01T13:37:32;13.48;;;6.47;;
58615;SDS011;44385;51.992;4.206;2023-04-01T13:40:17;17.27;;;7.18;;
58615;SDS011;44385;51.992;4.206;2023-04-01T13:42:47;16.48;;;6.95;;
58615;SDS011;44385;51.992;4.206;2023-04-01T13:45:19;16.45;;;6.90;;
58615;SDS011;44385;51.992;4.206;2023-04-01T13:47:50;17.52;;;6.63;;
58615;SDS011;44385;51.992;4.206;2023-04-01T13:50:32;16.55;;;6.68;;
58615;SDS011;44385;51.992;4.206;2023-04-01T13:53:03;14.15;;;5.93;;
58615;SDS011;44385;51.992;4.206;2023-04-01T13:55:36;15.13;;;5.60;;
58615;SDS011;44385;51.992;4.206;2023-04-01T13:58:20;18.23;;;5.70;;
58615;SDS011;44385;51.992;4.206;2023-04-01T14:00:56;15.13;;;6.20;;
58615;SDS011;44385;51.992;4.206;2023-04-01T14:03:42;19.92;;;6.47;;
58615;SDS011;44385;51.992;4.206;2023-04-01T14:06:16;17.25;;;6.28;;
58615;SDS011;44385;51.992;4.206;2023-04-01T14:08:55;17.42;;;7.15;;
58615;SDS011;44385;51.992;4.206;2023-04-01T14:11:27;19.63;;;7.20;;
58615;SDS011;44385;51.992;4.206;2023-04-01T14:13:59;21.65;;;7.63;;
58615;SDS011;44385;51.992;4.206;2023-04-01T14:16:46;22.80;;;6.57;;
58615;SDS011;44385;51.992;4.206;2023-04-01T14:21:46;27.17;;;6.85;;
58615;SDS011;44385;51.992;4.206;2023-04-01T14:29:59;27.30;;;6.55;;
58615;SDS011;44385;51.992;4.206;2023-04-01T14:32:32;22.58;;;6.80;;
58615;SDS011;44385;51.992;4.206;2023-04-01T14:35:09;25.25;;;6.55;;
58615;SDS011;44385;51.992;4.206;2023-04-01T14:40:22;29.45;;;6.03;;
58615;SDS011;44385;51.992;4.206;2023-04-01T14:42:58;17.52;;;6.15;;
58615;SDS011;44385;51.992;4.206;2023-04-01T14:48:21;19.50;;;9.18;;
58615;SDS011;44385;51.992;4.206;2023-04-01T14:50:52;11.88;;;5.55;;
58615;SDS011;44385;51.992;4.206;2023-04-01T14:53:30;15.20;;;5.70;;
58615;SDS011;44385;51.992;4.206;2023-04-01T14:55:58;20.95;;;11.60;;
58615;SDS011;44385;51.992;4.206;2023-04-01T14:58:40;19.25;;;6.53;;
58615;SDS011;44385;51.992;4.206;2023-04-01T15:01:10;15.95;;;6.68;;
58615;SDS011;44385;51.992;4.206;2023-04-01T15:03:45;13.82;;;6.22;;
58615;SDS011;44385;51.992;4.206;2023-04-01T15:06:24;15.73;;;5.70;;
58615;SDS011;44385;51.992;4.206;2023-04-01T15:08:54;21.15;;;7.30;;
58615;SDS011;44385;51.992;4.206;2023-04-01T15:11:37;20.42;;;5.85;;
58615;SDS011;44385;51.992;4.206;2023-04-01T15:16:55;23.75;;;6.53;;
58615;SDS011;44385;51.992;4.206;2023-04-01T15:19:31;20.50;;;5.85;;
58615;SDS011;44385;51.992;4.206;2023-04-01T15:22:21;22.80;;;5.60;;
58615;SDS011;44385;51.992;4.206;2023-04-01T15:24:56;17.98;;;4.88;;
58615;SDS011;44385;51.992;4.206;2023-04-01T15:27:34;21.20;;;6.10;;
58615;SDS011;44385;51.992;4.206;2023-04-01T15:32:58;17.95;;;5.45;;
58615;SDS011;44385;51.992;4.206;2023-04-01T15:35:36;20.25;;;6.05;;
58615;SDS011;44385;51.992;4.206;2023-04-01T15:38:06;16.45;;;5.80;;
58615;SDS011;44385;51.992;4.206;2023-04-01T15:40:36;24.73;;;5.83;;
58615;SDS011;44385;51.992;4.206;2023-04-01T15:43:07;15.90;;;5.65;;
58615;SDS011;44385;51.992;4.206;2023-04-01T15:45:41;20.35;;;6.00;;
58615;SDS011;44385;51.992;4.206;2023-04-01T15:48:19;20.83;;;6.47;;
58615;SDS011;44385;51.992;4.206;2023-04-01T15:50:54;30.45;;;6.50;;
58615;SDS011;44385;51.992;4.206;2023-04-01T15:56:10;20.50;;;4.60;;
58615;SDS011;44385;51.992;4.206;2023-04-01T15:58:42;23.33;;;6.40;;
58615;SDS011;44385;51.992;4.206;2023-04-01T16:01:18;26.65;;;6.10;;
58615;SDS011;44385;51.992;4.206;2023-04-01T16:03:46;18.42;;;5.85;;
58615;SDS011;44385;51.992;4.206;2023-04-01T16:06:39;23.75;;;7.03;;
58615;SDS011;44385;51.992;4.206;2023-04-01T16:09:34;20.35;;;7.03;;
58615;SDS011;44385;51.992;4.206;2023-04-01T16:12:04;34.20;;;16.63;;
58615;SDS011;44385;51.992;4.206;2023-04-01T16:14:35;25.30;;;6.43;;
58615;SDS011;44385;51.992;4.206;2023-04-01T16:17:12;18.77;;;7.32;;
58615;SDS011;44385;51.992;4.206;2023-04-01T16:19:47;31.42;;;12.93;;
58615;SDS011;44385;51.992;4.206;2023-04-01T16:22:19;24.73;;;9.38;;
58615;SDS011;44385;51.992;4.206;2023-04-01T16:24:48;19.65;;;6.85;;
58615;SDS011;44385;51.992;4.206;2023-04-01T16:27:18;23.95;;;8.65;;
58615;SDS011;44385;51.992;4.206;2023-04-01T16:29:46;18.55;;;7.05;;
58615;SDS011;44385;51.992;4.206;2023-04-01T16:32:20;16.27;;;6.22;;
58615;SDS011;44385;51.992;4.206;2023-04-01T16:34:56;19.13;;;5.70;;
58615;SDS011;44385;51.992;4.206;2023-04-01T16:37:31;28.10;;;13.05;;